sensor_id;sensor_type;location;lat;lon;timestamp;pressure;altitude;pressure_sealevel;temperature;humidity
70302;BME280;57706;56.326;43.882;2022-08-18T00:01:12;101281.63;;;18.06;73.82
70302;BME280;57706;56.326;43.882;2022-08-18T00:03:39;101292.44;;;18.04;74.08
70302;BME280;57706;56.326;43.882;2022-08-18T00:06:06;101281.16;;;18.02;74.30
70302;BME280;57706;56.326;43.882;2022-08-18T00:08:32;101284.84;;;18.01;74.17
70302;BME280;57706;56.326;43.882;2022-08-18T00:10:58;101286.88;;;17.99;74.22
70302;BME280;57706;56.326;43.882;2022-08-18T00:13:24;101292.53;;;17.96;74.66
70302;BME280;57706;56.326;43.882;2022-08-18T00:15:50;101289.25;;;17.94;74.63
70302;BME280;57706;56.326;43.882;2022-08-18T00:18:16;101288.00;;;17.89;75.26
70302;BME280;57706;56.326;43.882;2022-08-18T00:20:42;101294.53;;;17.87;75.22
70302;BME280;57706;56.326;43.882;2022-08-18T00:23:08;101296.56;;;17.85;75.67
70302;BME280;57706;56.326;43.882;2022-08-18T00:25:54;101296.09;;;17.81;75.61
70302;BME280;57706;56.326;43.882;2022-08-18T00:28:20;101298.75;;;17.81;75.67
70302;BME280;57706;56.326;43.882;2022-08-18T00:31:05;101300.75;;;17.79;75.65
70302;BME280;57706;56.326;43.882;2022-08-18T00:33:31;101298.50;;;17.76;75.89
70302;BME280;57706;56.326;43.882;2022-08-18T00:35:57;101303.19;;;17.74;75.89
70302;BME280;57706;56.326;43.882;2022-08-18T00:38:41;101301.72;;;17.71;76.09
70302;BME280;57706;56.326;43.882;2022-08-18T00:41:07;101308.84;;;17.71;76.03
70302;BME280;57706;56.326;43.882;2022-08-18T00:43:35;101309.06;;;17.69;75.93
70302;BME280;57706;56.326;43.882;2022-08-18T00:46:35;101312.28;;;17.65;76.30
70302;BME280;57706;56.326;43.882;2022-08-18T00:49:03;101310.59;;;17.64;76.43
70302;BME280;57706;56.326;43.882;2022-08-18T00:51:39;101314.28;;;17.63;76.73
70302;BME280;57706;56.326;43.882;2022-08-18T00:54:23;101306.50;;;17.61;76.97
70302;BME280;57706;56.326;43.882;2022-08-18T00:56:58;101314.66;;;17.59;76.54
70302;BME280;57706;56.326;43.882;2022-08-18T00:59:27;101311.16;;;17.59;76.66
70302;BME280;57706;56.326;43.882;2022-08-18T01:01:57;101318.50;;;17.57;77.00
70302;BME280;57706;56.326;43.882;2022-08-18T01:04:51;101321.34;;;17.55;76.79
70302;BME280;57706;56.326;43.882;2022-08-18T01:07:25;101318.69;;;17.55;77.14
70302;BME280;57706;56.326;43.882;2022-08-18T01:09:55;101313.75;;;17.52;77.09
70302;BME280;57706;56.326;43.882;2022-08-18T01:12:49;101313.75;;;17.52;77.21
70302;BME280;57706;56.326;43.882;2022-08-18T01:15:17;101310.47;;;17.50;77.08
70302;BME280;57706;56.326;43.882;2022-08-18T01:18:05;101317.81;;;17.48;77.22
70302;BME280;57706;56.326;43.882;2022-08-18T01:21:13;101316.69;;;17.42;77.35
70302;BME280;57706;56.326;43.882;2022-08-18T01:24:01;101315.63;;;17.37;77.30
70302;BME280;57706;56.326;43.882;2022-08-18T01:26:28;101310.69;;;17.33;77.68
70302;BME280;57706;56.326;43.882;2022-08-18T01:29:03;101323.69;;;17.28;78.22
70302;BME280;57706;56.326;43.882;2022-08-18T01:34:04;101321.56;;;17.24;77.92
70302;BME280;57706;56.326;43.882;2022-08-18T01:36:32;101323.44;;;17.23;77.91
70302;BME280;57706;56.326;43.882;2022-08-18T01:39:04;101320.94;;;17.22;78.05
70302;BME280;57706;56.326;43.882;2022-08-18T01:41:30;101323.78;;;17.20;78.01
70302;BME280;57706;56.326;43.882;2022-08-18T01:43:58;101323.97;;;17.18;78.32
70302;BME280;57706;56.326;43.882;2022-08-18T01:46:29;101326.44;;;17.20;78.11
70302;BME280;57706;56.326;43.882;2022-08-18T01:48:55;101322.75;;;17.21;78.25
70302;BME280;57706;56.326;43.882;2022-08-18T01:51:44;101322.75;;;17.21;78.38
70302;BME280;57706;56.326;43.882;2022-08-18T01:54:12;101322.59;;;17.23;78.29
70302;BME280;57706;56.326;43.882;2022-08-18T01:56:41;101324.25;;;17.24;78.28
70302;BME280;57706;56.326;43.882;2022-08-18T01:59:07;101329.38;;;17.25;78.37
70302;BME280;57706;56.326;43.882;2022-08-18T02:01:40;101326.53;;;17.27;78.81
70302;BME280;57706;56.326;43.882;2022-08-18T02:04:06;101330.28;;;17.32;78.16
70302;BME280;57706;56.326;43.882;2022-08-18T02:06:33;101333.66;;;17.41;77.95
70302;BME280;57706;56.326;43.882;2022-08-18T02:08:58;101338.22;;;17.47;77.69
70302;BME280;57706;56.326;43.882;2022-08-18T02:11:24;101335.41;;;17.49;77.63
70302;BME280;57706;56.326;43.882;2022-08-18T02:13:50;101337.97;;;17.57;77.30
70302;BME280;57706;56.326;43.882;2022-08-18T02:16:16;101337.13;;;17.57;77.30
70302;BME280;57706;56.326;43.882;2022-08-18T02:19:01;101338.59;;;17.59;77.59
70302;BME280;57706;56.326;43.882;2022-08-18T02:21:28;101341.69;;;17.63;77.33
70302;BME280;57706;56.326;43.882;2022-08-18T02:23:54;101342.16;;;17.67;77.05
70302;BME280;57706;56.326;43.882;2022-08-18T02:26:20;101334.41;;;17.72;77.20
70302;BME280;57706;56.326;43.882;2022-08-18T02:28:46;101349.63;;;17.78;76.82
70302;BME280;57706;56.326;43.882;2022-08-18T02:31:17;101352.56;;;17.83;76.93
70302;BME280;57706;56.326;43.882;2022-08-18T02:34:02;101347.31;;;17.90;76.63
70302;BME280;57706;56.326;43.882;2022-08-18T02:36:28;101355.34;;;17.97;76.25
70302;BME280;57706;56.326;43.882;2022-08-18T02:38:54;101348.31;;;18.04;76.13
70302;BME280;57706;56.326;43.882;2022-08-18T02:41:19;101350.38;;;18.09;75.79
70302;BME280;57706;56.326;43.882;2022-08-18T02:44:07;101356.44;;;18.18;75.69
70302;BME280;57706;56.326;43.882;2022-08-18T02:46:33;101359.53;;;18.21;75.57
70302;BME280;57706;56.326;43.882;2022-08-18T02:48:59;101355.09;;;18.28;75.69
70302;BME280;57706;56.326;43.882;2022-08-18T02:51:44;101353.13;;;18.37;74.95
70302;BME280;57706;56.326;43.882;2022-08-18T02:54:10;101355.28;;;18.49;74.53
70302;BME280;57706;56.326;43.882;2022-08-18T02:56:36;101357.81;;;18.57;74.49
70302;BME280;57706;56.326;43.882;2022-08-18T02:59:05;101361.97;;;18.66;74.18
70302;BME280;57706;56.326;43.882;2022-08-18T03:01:35;101364.50;;;18.75;73.78
70302;BME280;57706;56.326;43.882;2022-08-18T03:04:04;101356.38;;;18.83;73.78
70302;BME280;57706;56.326;43.882;2022-08-18T03:06:32;101361.53;;;18.91;73.36
70302;BME280;57706;56.326;43.882;2022-08-18T03:08:58;101362.19;;;19.00;73.01
70302;BME280;57706;56.326;43.882;2022-08-18T03:11:26;101360.25;;;19.09;72.73
70302;BME280;57706;56.326;43.882;2022-08-18T03:13:53;101362.34;;;19.20;72.35
70302;BME280;57706;56.326;43.882;2022-08-18T03:16:19;101356.84;;;19.29;72.14
70302;BME280;57706;56.326;43.882;2022-08-18T03:18:46;101360.00;;;19.39;71.71
70302;BME280;57706;56.326;43.882;2022-08-18T03:21:17;101354.09;;;19.50;71.46
70302;BME280;57706;56.326;43.882;2022-08-18T03:23:46;101354.75;;;19.59;71.03
70302;BME280;57706;56.326;43.882;2022-08-18T03:26:14;101346.38;;;19.69;70.91
70302;BME280;57706;56.326;43.882;2022-08-18T03:28:44;101346.00;;;19.79;70.50
70302;BME280;57706;56.326;43.882;2022-08-18T03:31:12;101342.13;;;19.88;70.11
70302;BME280;57706;56.326;43.882;2022-08-18T03:34:00;101334.81;;;19.97;69.94
70302;BME280;57706;56.326;43.882;2022-08-18T03:36:29;101332.75;;;20.06;69.74
70302;BME280;57706;56.326;43.882;2022-08-18T03:38:56;101330.91;;;20.13;69.34
70302;BME280;57706;56.326;43.882;2022-08-18T03:41:24;101332.34;;;20.22;69.15
70302;BME280;57706;56.326;43.882;2022-08-18T03:43:51;101337.69;;;20.29;68.95
70302;BME280;57706;56.326;43.882;2022-08-18T03:46:19;101343.47;;;20.40;68.56
70302;BME280;57706;56.326;43.882;2022-08-18T03:48:45;101339.78;;;20.41;68.67
70302;BME280;57706;56.326;43.882;2022-08-18T03:51:16;101337.09;;;20.47;68.55
70302;BME280;57706;56.326;43.882;2022-08-18T03:53:44;101342.03;;;20.57;68.17
70302;BME280;57706;56.326;43.882;2022-08-18T03:56:12;101337.09;;;20.68;67.80
70302;BME280;57706;56.326;43.882;2022-08-18T03:58:46;101334.00;;;20.77;67.54
70302;BME280;57706;56.326;43.882;2022-08-18T04:01:16;101345.94;;;20.88;67.27
70302;BME280;57706;56.326;43.882;2022-08-18T04:03:43;101336.03;;;20.96;67.01
70302;BME280;57706;56.326;43.882;2022-08-18T04:06:23;101332.13;;;21.05;66.95
70302;BME280;57706;56.326;43.882;2022-08-18T04:08:51;101336.41;;;21.13;66.65
70302;BME280;57706;56.326;43.882;2022-08-18T04:11:17;101334.34;;;21.22;66.33
70302;BME280;57706;56.326;43.882;2022-08-18T04:13:43;101336.53;;;21.31;66.09
70302;BME280;57706;56.326;43.882;2022-08-18T04:16:29;101342.06;;;21.43;65.76
70302;BME280;57706;56.326;43.882;2022-08-18T04:19:00;101344.09;;;21.55;65.48
70302;BME280;57706;56.326;43.882;2022-08-18T04:21:33;101338.50;;;21.63;65.30
70302;BME280;57706;56.326;43.882;2022-08-18T04:24:00;101341.53;;;21.73;65.01
70302;BME280;57706;56.326;43.882;2022-08-18T04:26:42;101346.81;;;21.87;64.71
70302;BME280;57706;56.326;43.882;2022-08-18T04:29:10;101339.16;;;21.97;64.33
70302;BME280;57706;56.326;43.882;2022-08-18T04:31:36;101336.81;;;22.08;63.83
70302;BME280;57706;56.326;43.882;2022-08-18T04:34:03;101333.00;;;22.22;63.04
70302;BME280;57706;56.326;43.882;2022-08-18T04:36:30;101336.00;;;22.33;62.96
70302;BME280;57706;56.326;43.882;2022-08-18T04:38:58;101335.53;;;22.42;61.90
70302;BME280;57706;56.326;43.882;2022-08-18T04:41:25;101343.06;;;22.52;61.45
70302;BME280;57706;56.326;43.882;2022-08-18T04:43:56;101338.94;;;22.57;60.24
70302;BME280;57706;56.326;43.882;2022-08-18T04:46:24;101349.56;;;22.63;60.27
70302;BME280;57706;56.326;43.882;2022-08-18T04:48:49;101339.78;;;22.76;59.75
70302;BME280;57706;56.326;43.882;2022-08-18T04:51:35;101334.56;;;22.81;59.80
70302;BME280;57706;56.326;43.882;2022-08-18T04:54:04;101343.16;;;22.90;59.90
70302;BME280;57706;56.326;43.882;2022-08-18T04:56:33;101345.38;;;23.12;58.80
70302;BME280;57706;56.326;43.882;2022-08-18T04:59:12;101342.09;;;23.28;58.31
70302;BME280;57706;56.326;43.882;2022-08-18T05:01:46;101345.53;;;23.35;57.91
70302;BME280;57706;56.326;43.882;2022-08-18T05:04:14;101343.59;;;23.43;57.20
70302;BME280;57706;56.326;43.882;2022-08-18T05:06:41;101347.69;;;23.45;56.64
70302;BME280;57706;56.326;43.882;2022-08-18T05:09:09;101353.72;;;23.59;56.34
70302;BME280;57706;56.326;43.882;2022-08-18T05:11:36;101349.66;;;23.69;55.49
70302;BME280;57706;56.326;43.882;2022-08-18T05:14:22;101346.84;;;23.94;54.71
70302;BME280;57706;56.326;43.882;2022-08-18T05:16:48;101356.47;;;24.14;52.78
70302;BME280;57706;56.326;43.882;2022-08-18T05:19:15;101358.03;;;24.22;53.46
70302;BME280;57706;56.326;43.882;2022-08-18T05:21:41;101363.28;;;24.28;53.40
70302;BME280;57706;56.326;43.882;2022-08-18T05:24:08;101361.53;;;24.34;52.72
70302;BME280;57706;56.326;43.882;2022-08-18T05:26:35;101360.28;;;24.49;52.82
70302;BME280;57706;56.326;43.882;2022-08-18T05:29:02;101358.28;;;24.56;51.81
70302;BME280;57706;56.326;43.882;2022-08-18T05:31:28;101359.97;;;24.81;51.56
70302;BME280;57706;56.326;43.882;2022-08-18T05:33:55;101356.50;;;25.21;50.45
70302;BME280;57706;56.326;43.882;2022-08-18T05:41:48;101352.47;;;26.23;46.45
70302;BME280;57706;56.326;43.882;2022-08-18T05:44:40;101357.03;;;26.57;45.58
70302;BME280;57706;56.326;43.882;2022-08-18T05:49:43;101357.72;;;26.86;45.32
70302;BME280;57706;56.326;43.882;2022-08-18T05:52:29;101352.94;;;26.20;45.62
70302;BME280;57706;56.326;43.882;2022-08-18T05:55:02;101353.91;;;26.14;46.04
70302;BME280;57706;56.326;43.882;2022-08-18T05:57:55;101348.84;;;26.17;46.65
70302;BME280;57706;56.326;43.882;2022-08-18T06:00:22;101353.78;;;26.20;46.29
70302;BME280;57706;56.326;43.882;2022-08-18T06:02:55;101354.94;;;26.24;45.79
70302;BME280;57706;56.326;43.882;2022-08-18T06:05:35;101359.31;;;26.48;45.73
70302;BME280;57706;56.326;43.882;2022-08-18T06:08:24;101349.34;;;26.65;45.37
70302;BME280;57706;56.326;43.882;2022-08-18T06:10:52;101351.25;;;26.87;44.67
70302;BME280;57706;56.326;43.882;2022-08-18T06:13:19;101349.66;;;27.31;43.10
70302;BME280;57706;56.326;43.882;2022-08-18T06:19:02;101351.34;;;31.13;35.70
70302;BME280;57706;56.326;43.882;2022-08-18T06:25:39;101333.44;;;39.92;23.29
70302;BME280;57706;56.326;43.882;2022-08-18T06:30:21;101325.34;;;41.56;21.53
70302;BME280;57706;56.326;43.882;2022-08-18T06:35:48;101321.56;;;44.37;17.49
70302;BME280;57706;56.326;43.882;2022-08-18T06:41:21;101312.41;;;47.51;14.97
70302;BME280;57706;56.326;43.882;2022-08-18T06:44:11;101306.63;;;48.67;13.44
70302;BME280;57706;56.326;43.882;2022-08-18T06:46:58;101306.72;;;49.24;13.03
70302;BME280;57706;56.326;43.882;2022-08-18T06:54:54;101302.72;;;50.12;11.35
70302;BME280;57706;56.326;43.882;2022-08-18T06:57:54;101300.47;;;50.93;11.08
70302;BME280;57706;56.326;43.882;2022-08-18T07:00:25;101309.44;;;51.36;11.38
70302;BME280;57706;56.326;43.882;2022-08-18T07:02:54;101301.97;;;51.26;11.10
70302;BME280;57706;56.326;43.882;2022-08-18T07:11:24;101288.22;;;52.97;10.26
70302;BME280;57706;56.326;43.882;2022-08-18T07:13:52;101282.59;;;52.80;9.10
70302;BME280;57706;56.326;43.882;2022-08-18T07:18:54;101287.16;;;53.24;9.15
70302;BME280;57706;56.326;43.882;2022-08-18T07:21:33;101286.34;;;53.86;9.30
70302;BME280;57706;56.326;43.882;2022-08-18T07:24:09;101293.91;;;54.02;9.14
70302;BME280;57706;56.326;43.882;2022-08-18T07:29:20;101285.22;;;51.49;9.43
70302;BME280;57706;56.326;43.882;2022-08-18T07:31:49;101287.66;;;51.47;9.86
70302;BME280;57706;56.326;43.882;2022-08-18T07:34:30;101274.28;;;49.41;10.71
70302;BME280;57706;56.326;43.882;2022-08-18T07:37:08;101284.19;;;50.57;10.14
70302;BME280;57706;56.326;43.882;2022-08-18T07:42:36;101283.44;;;48.85;10.34
70302;BME280;57706;56.326;43.882;2022-08-18T07:45:18;101276.91;;;50.67;9.27
70302;BME280;57706;56.326;43.882;2022-08-18T07:48:09;101279.72;;;46.82;11.31
70302;BME280;57706;56.326;43.882;2022-08-18T07:56:41;101264.53;;;48.40;10.65
70302;BME280;57706;56.326;43.882;2022-08-18T08:10:35;101278.13;;;48.19;9.67
70302;BME280;57706;56.326;43.882;2022-08-18T08:22:03;101310.06;;;56.62;5.64
70302;BME280;57706;56.326;43.882;2022-08-18T08:24:36;101294.31;;;54.43;6.26
70302;BME280;57706;56.326;43.882;2022-08-18T08:27:23;101292.88;;;56.37;5.26
70302;BME280;57706;56.326;43.882;2022-08-18T08:35:08;101297.31;;;47.55;9.06
70302;BME280;57706;56.326;43.882;2022-08-18T08:37:43;101277.28;;;48.37;8.64
70302;BME280;57706;56.326;43.882;2022-08-18T08:40:22;101290.69;;;49.77;7.82
70302;BME280;57706;56.326;43.882;2022-08-18T08:46:16;101284.41;;;53.53;5.48
70302;BME280;57706;56.326;43.882;2022-08-18T08:48:55;101286.88;;;54.24;5.72
70302;BME280;57706;56.326;43.882;2022-08-18T08:51:40;101296.78;;;52.90;5.42
70302;BME280;57706;56.326;43.882;2022-08-18T08:54:15;101296.16;;;48.86;7.49
70302;BME280;57706;56.326;43.882;2022-08-18T08:56:48;101308.69;;;46.81;8.90
70302;BME280;57706;56.326;43.882;2022-08-18T08:59:18;101291.59;;;48.39;8.51
70302;BME280;57706;56.326;43.882;2022-08-18T09:12:43;101303.53;;;46.83;9.40
70302;BME280;57706;56.326;43.882;2022-08-18T09:20:54;101306.16;;;46.47;8.63
70302;BME280;57706;56.326;43.882;2022-08-18T09:23:31;101312.00;;;48.00;7.99
70302;BME280;57706;56.326;43.882;2022-08-18T09:25:59;101310.16;;;48.78;7.43
70302;BME280;57706;56.326;43.882;2022-08-18T09:29:05;101314.00;;;45.74;9.08
70302;BME280;57706;56.326;43.882;2022-08-18T09:31:35;101308.91;;;42.08;11.40
70302;BME280;57706;56.326;43.882;2022-08-18T09:34:28;101316.94;;;43.04;10.82
70302;BME280;57706;56.326;43.882;2022-08-18T09:37:18;101323.06;;;41.17;12.07
70302;BME280;57706;56.326;43.882;2022-08-18T09:48:38;101319.81;;;46.81;8.87
70302;BME280;57706;56.326;43.882;2022-08-18T09:50:52;101319.47;;;48.39;8.25
70302;BME280;57706;56.326;43.882;2022-08-18T09:56:15;101332.81;;;49.94;7.52
70302;BME280;57706;56.326;43.882;2022-08-18T09:58:54;101317.75;;;52.85;5.99
70302;BME280;57706;56.326;43.882;2022-08-18T10:04:29;101319.44;;;53.78;5.56
70302;BME280;57706;56.326;43.882;2022-08-18T10:10:28;101329.84;;;47.22;9.03
70302;BME280;57706;56.326;43.882;2022-08-18T10:24:29;101331.75;;;46.93;9.48
70302;BME280;57706;56.326;43.882;2022-08-18T10:27:00;101327.53;;;46.36;8.99
70302;BME280;57706;56.326;43.882;2022-08-18T10:34:49;101338.66;;;47.93;8.24
70302;BME280;57706;56.326;43.882;2022-08-18T10:39:50;101331.91;;;51.05;6.88
70302;BME280;57706;56.326;43.882;2022-08-18T10:42:22;101321.50;;;50.78;6.70
70302;BME280;57706;56.326;43.882;2022-08-18T10:44:52;101334.00;;;52.16;6.39
70302;BME280;57706;56.326;43.882;2022-08-18T10:47:27;101321.09;;;53.46;6.00
70302;BME280;57706;56.326;43.882;2022-08-18T10:49:54;101317.84;;;55.01;5.09
70302;BME280;57706;56.326;43.882;2022-08-18T10:52:31;101327.88;;;55.51;4.91
70302;BME280;57706;56.326;43.882;2022-08-18T10:55:14;101336.84;;;54.45;5.14
70302;BME280;57706;56.326;43.882;2022-08-18T11:00:21;101323.75;;;49.37;7.64
70302;BME280;57706;56.326;43.882;2022-08-18T11:05:41;101305.53;;;50.75;7.03
70302;BME280;57706;56.326;43.882;2022-08-18T11:08:13;101309.69;;;52.87;6.52
70302;BME280;57706;56.326;43.882;2022-08-18T11:10:46;101305.72;;;54.79;5.01
70302;BME280;57706;56.326;43.882;2022-08-18T11:13:40;101301.09;;;48.53;8.03
70302;BME280;57706;56.326;43.882;2022-08-18T11:19:02;101309.84;;;52.80;6.09
70302;BME280;57706;56.326;43.882;2022-08-18T11:26:35;101294.09;;;47.13;8.96
70302;BME280;57706;56.326;43.882;2022-08-18T11:31:51;101295.59;;;48.38;8.34
70302;BME280;57706;56.326;43.882;2022-08-18T11:34:28;101296.41;;;46.90;9.23
70302;BME280;57706;56.326;43.882;2022-08-18T11:37:00;101300.44;;;46.96;9.46
70302;BME280;57706;56.326;43.882;2022-08-18T11:39:28;101290.06;;;48.23;8.55
70302;BME280;57706;56.326;43.882;2022-08-18T11:41:55;101303.59;;;46.98;9.22
70302;BME280;57706;56.326;43.882;2022-08-18T11:44:28;101304.22;;;48.69;8.46
70302;BME280;57706;56.326;43.882;2022-08-18T11:47:11;101310.47;;;46.37;9.66
70302;BME280;57706;56.326;43.882;2022-08-18T11:49:48;101300.19;;;46.38;10.04
70302;BME280;57706;56.326;43.882;2022-08-18T11:52:26;101303.31;;;50.31;7.99
70302;BME280;57706;56.326;43.882;2022-08-18T11:55:02;101300.91;;;48.96;7.99
70302;BME280;57706;56.326;43.882;2022-08-18T11:57:30;101301.28;;;47.91;8.72
70302;BME280;57706;56.326;43.882;2022-08-18T11:59:56;101294.03;;;49.65;8.00
70302;BME280;57706;56.326;43.882;2022-08-18T12:02:24;101298.63;;;51.11;7.49
70302;BME280;57706;56.326;43.882;2022-08-18T12:05:00;101292.72;;;49.27;8.17
70302;BME280;57706;56.326;43.882;2022-08-18T12:07:33;101302.91;;;47.37;9.12
70302;BME280;57706;56.326;43.882;2022-08-18T12:10:25;101291.91;;;49.30;8.11
70302;BME280;57706;56.326;43.882;2022-08-18T12:12:56;101304.31;;;48.44;8.78
70302;BME280;57706;56.326;43.882;2022-08-18T12:15:32;101289.09;;;49.76;8.13
70302;BME280;57706;56.326;43.882;2022-08-18T12:17:58;101293.41;;;49.84;7.68
70302;BME280;57706;56.326;43.882;2022-08-18T12:20:24;101292.50;;;47.89;8.72
70302;BME280;57706;56.326;43.882;2022-08-18T12:22:50;101294.28;;;45.87;10.00
70302;BME280;57706;56.326;43.882;2022-08-18T12:25:20;101294.16;;;46.28;10.06
70302;BME280;57706;56.326;43.882;2022-08-18T12:27:46;101290.84;;;48.28;8.85
70302;BME280;57706;56.326;43.882;2022-08-18T12:30:12;101293.31;;;47.53;9.35
70302;BME280;57706;56.326;43.882;2022-08-18T12:32:56;101287.28;;;49.05;8.71
70302;BME280;57706;56.326;43.882;2022-08-18T12:35:22;101284.59;;;49.44;8.20
70302;BME280;57706;56.326;43.882;2022-08-18T12:37:48;101289.16;;;48.56;8.69
70302;BME280;57706;56.326;43.882;2022-08-18T12:40:14;101289.75;;;49.95;8.03
70302;BME280;57706;56.326;43.882;2022-08-18T12:42:40;101281.59;;;48.53;8.40
70302;BME280;57706;56.326;43.882;2022-08-18T12:45:06;101290.06;;;46.93;9.54
70302;BME280;57706;56.326;43.882;2022-08-18T12:47:37;101284.81;;;45.95;10.49
70302;BME280;57706;56.326;43.882;2022-08-18T12:50:05;101280.44;;;46.57;9.85
70302;BME280;57706;56.326;43.882;2022-08-18T12:52:31;101287.81;;;46.28;10.28
70302;BME280;57706;56.326;43.882;2022-08-18T12:54:56;101271.50;;;45.59;10.43
70302;BME280;57706;56.326;43.882;2022-08-18T12:57:25;101275.47;;;43.04;12.38
70302;BME280;57706;56.326;43.882;2022-08-18T12:59:51;101278.84;;;43.60;12.16
70302;BME280;57706;56.326;43.882;2022-08-18T13:02:19;101275.16;;;43.76;11.72
70302;BME280;57706;56.326;43.882;2022-08-18T13:04:46;101279.13;;;45.73;10.65
70302;BME280;57706;56.326;43.882;2022-08-18T13:07:12;101287.03;;;44.27;11.19
70302;BME280;57706;56.326;43.882;2022-08-18T13:09:39;101291.88;;;45.82;10.47
70302;BME280;57706;56.326;43.882;2022-08-18T13:12:06;101295.16;;;45.08;10.92
70302;BME280;57706;56.326;43.882;2022-08-18T13:14:32;101293.13;;;45.01;10.91
70302;BME280;57706;56.326;43.882;2022-08-18T13:16:58;101289.81;;;45.71;10.68
70302;BME280;57706;56.326;43.882;2022-08-18T13:19:24;101292.69;;;45.86;10.44
70302;BME280;57706;56.326;43.882;2022-08-18T13:21:51;101280.63;;;47.81;9.41
70302;BME280;57706;56.326;43.882;2022-08-18T13:24:16;101292.94;;;46.18;10.27
70302;BME280;57706;56.326;43.882;2022-08-18T13:26:44;101285.47;;;44.94;11.02
70302;BME280;57706;56.326;43.882;2022-08-18T13:29:10;101290.53;;;45.23;10.94
70302;BME280;57706;56.326;43.882;2022-08-18T13:31:55;101294.47;;;45.18;11.08
70302;BME280;57706;56.326;43.882;2022-08-18T13:34:26;101294.06;;;44.51;11.54
70302;BME280;57706;56.326;43.882;2022-08-18T13:36:53;101292.63;;;45.78;10.65
70302;BME280;57706;56.326;43.882;2022-08-18T13:39:21;101293.72;;;46.19;10.43
70302;BME280;57706;56.326;43.882;2022-08-18T13:41:49;101290.97;;;45.67;10.81
70302;BME280;57706;56.326;43.882;2022-08-18T13:44:16;101286.38;;;43.60;12.03
70302;BME280;57706;56.326;43.882;2022-08-18T13:46:43;101291.28;;;44.21;11.86
70302;BME280;57706;56.326;43.882;2022-08-18T13:49:19;101291.38;;;44.89;11.36
70302;BME280;57706;56.326;43.882;2022-08-18T13:51:47;101299.88;;;45.94;10.72
70302;BME280;57706;56.326;43.882;2022-08-18T13:54:22;101289.19;;;43.64;11.92
70302;BME280;57706;56.326;43.882;2022-08-18T13:57:07;101287.94;;;43.38;12.25
70302;BME280;57706;56.326;43.882;2022-08-18T13:59:33;101291.13;;;41.00;14.01
70302;BME280;57706;56.326;43.882;2022-08-18T14:02:01;101292.97;;;38.70;15.89
70302;BME280;57706;56.326;43.882;2022-08-18T14:04:26;101294.38;;;39.53;15.28
70302;BME280;57706;56.326;43.882;2022-08-18T14:06:54;101293.84;;;39.84;15.33
70302;BME280;57706;56.326;43.882;2022-08-18T14:09:20;101286.09;;;36.54;17.93
70302;BME280;57706;56.326;43.882;2022-08-18T14:11:47;101301.88;;;33.90;20.86
70302;BME280;57706;56.326;43.882;2022-08-18T14:14:14;101307.06;;;33.01;22.32
70302;BME280;57706;56.326;43.882;2022-08-18T14:16:39;101307.63;;;32.54;22.61
70302;BME280;57706;56.326;43.882;2022-08-18T14:19:05;101308.63;;;32.09;23.17
70302;BME280;57706;56.326;43.882;2022-08-18T14:21:52;101300.66;;;31.49;24.49
70302;BME280;57706;56.326;43.882;2022-08-18T14:24:39;101307.59;;;31.25;24.60
70302;BME280;57706;56.326;43.882;2022-08-18T14:27:29;101311.88;;;31.37;24.55
70302;BME280;57706;56.326;43.882;2022-08-18T14:30:14;101309.00;;;31.12;25.05
70302;BME280;57706;56.326;43.882;2022-08-18T14:32:41;101318.03;;;30.97;24.88
70302;BME280;57706;56.326;43.882;2022-08-18T14:35:08;101319.44;;;30.84;25.39
70302;BME280;57706;56.326;43.882;2022-08-18T14:37:34;101323.41;;;31.08;25.39
70302;BME280;57706;56.326;43.882;2022-08-18T14:40:00;101320.88;;;31.32;25.25
70302;BME280;57706;56.326;43.882;2022-08-18T14:42:27;101327.31;;;30.86;25.95
70302;BME280;57706;56.326;43.882;2022-08-18T14:44:52;101327.63;;;30.74;26.20
70302;BME280;57706;56.326;43.882;2022-08-18T14:47:20;101331.91;;;30.90;26.42
70302;BME280;57706;56.326;43.882;2022-08-18T14:49:46;101342.28;;;30.57;26.67
70302;BME280;57706;56.326;43.882;2022-08-18T14:52:12;101340.44;;;30.32;26.67
70302;BME280;57706;56.326;43.882;2022-08-18T14:54:38;101351.81;;;29.98;27.61
70302;BME280;57706;56.326;43.882;2022-08-18T14:57:04;101352.59;;;29.57;28.65
70302;BME280;57706;56.326;43.882;2022-08-18T14:59:31;101362.47;;;29.15;29.41
70302;BME280;57706;56.326;43.882;2022-08-18T15:01:58;101357.81;;;29.05;29.48
70302;BME280;57706;56.326;43.882;2022-08-18T15:04:24;101354.09;;;29.21;29.02
70302;BME280;57706;56.326;43.882;2022-08-18T15:06:52;101361.84;;;28.97;29.76
70302;BME280;57706;56.326;43.882;2022-08-18T15:09:18;101364.44;;;28.81;29.82
70302;BME280;57706;56.326;43.882;2022-08-18T15:11:44;101369.97;;;28.97;29.73
70302;BME280;57706;56.326;43.882;2022-08-18T15:14:10;101363.94;;;28.84;30.07
70302;BME280;57706;56.326;43.882;2022-08-18T15:16:36;101366.56;;;28.69;30.32
70302;BME280;57706;56.326;43.882;2022-08-18T15:19:03;101367.06;;;28.66;30.53
70302;BME280;57706;56.326;43.882;2022-08-18T15:21:29;101363.09;;;28.36;31.31
70302;BME280;57706;56.326;43.882;2022-08-18T15:24:15;101364.19;;;28.40;31.24
70302;BME280;57706;56.326;43.882;2022-08-18T15:27:00;101366.91;;;28.07;31.82
70302;BME280;57706;56.326;43.882;2022-08-18T15:29:27;101367.16;;;28.06;31.61
70302;BME280;57706;56.326;43.882;2022-08-18T15:31:54;101357.91;;;27.96;31.83
70302;BME280;57706;56.326;43.882;2022-08-18T15:34:19;101362.13;;;27.87;32.26
70302;BME280;57706;56.326;43.882;2022-08-18T15:36:47;101361.31;;;27.59;33.06